createdAt,value
2022-11-14T00:01:34.051Z,99370.27
2022-11-14T00:07:26.331Z,99374.09
2022-11-14T00:13:15.396Z,99369.73
2022-11-14T00:19:20.862Z,99357.88
2022-11-14T00:25:22.240Z,99353.11
2022-11-14T00:31:14.672Z,99355.32
2022-11-14T00:36:57.696Z,99356.92
2022-11-14T00:42:40.178Z,99357.16
2022-11-14T00:48:22.191Z,99364.46
2022-11-14T00:54:04.273Z,99369.60
2022-11-14T00:59:45.387Z,99367.45
2022-11-14T01:05:26.214Z,99361.71
2022-11-14T01:11:12.842Z,99351.60
2022-11-14T01:16:54.411Z,99336.64
2022-11-14T01:22:35.913Z,99332.29
2022-11-14T01:28:20.035Z,99322.29
2022-11-14T01:34:00.920Z,99312.72
2022-11-14T01:39:41.895Z,99305.19
2022-11-14T01:46:08.421Z,99304.76
2022-11-14T01:51:50.196Z,99294.10
2022-11-14T01:57:36.591Z,99280.15
2022-11-14T02:03:18.629Z,99286.98
2022-11-14T02:09:02.437Z,99281.60
2022-11-14T02:14:46.775Z,99273.64
2022-11-14T02:20:33.180Z,99266.53
2022-11-14T02:26:16.668Z,99263.28
2022-11-14T02:31:56.977Z,99265.80
2022-11-14T02:37:37.945Z,99272.88
2022-11-14T02:43:19.094Z,99264.66
2022-11-14T02:49:00.257Z,99259.04
2022-11-14T02:54:41.434Z,99251.81
2022-11-14T03:00:22.371Z,99250.78
2022-11-14T03:06:05.884Z,99249.40
2022-11-14T03:11:47.276Z,99242.42
2022-11-14T03:17:32.164Z,99240.58
2022-11-14T03:23:13.119Z,99246.17
2022-11-14T03:28:55.525Z,99245.13
2022-11-14T03:34:37.172Z,99233.45
2022-11-14T03:40:18.338Z,99238.04
2022-11-14T03:46:00.704Z,99233.29
2022-11-14T03:51:45.618Z,99229.67
2022-11-14T03:57:28.404Z,99230.69
2022-11-14T04:03:12.183Z,99230.27
2022-11-14T04:08:57.471Z,99226.77
2022-11-14T04:14:41.224Z,99223.13
2022-11-14T04:20:22.831Z,99217.58
2022-11-14T04:26:05.547Z,99215.83
2022-11-14T04:31:48.453Z,99212.46
2022-11-14T04:37:29.679Z,99216.64
2022-11-14T04:43:11.713Z,99216.54
2022-11-14T04:48:55.709Z,99218.52
2022-11-14T04:54:37.366Z,99213.02
2022-11-14T05:00:20.353Z,99214.94
2022-11-14T05:06:01.617Z,99210.48
2022-11-14T05:11:44.568Z,99205.80
2022-11-14T05:17:25.574Z,99205.73
2022-11-14T05:23:06.945Z,99205.02
2022-11-14T05:28:52.626Z,99204.24
2022-11-14T05:34:37.777Z,99201.05
2022-11-14T05:40:21.891Z,99200.92
2022-11-14T05:46:04.515Z,99202.58
2022-11-14T05:51:46.452Z,99198.73
2022-11-14T05:57:28.160Z,99202.35
2022-11-14T06:03:09.107Z,99203.42
2022-11-14T06:08:49.896Z,99207.40
2022-11-14T06:14:30.842Z,99204.56
2022-11-14T06:20:13.443Z,99206.73
2022-11-14T06:26:03.127Z,99206.45
2022-11-14T06:32:04.439Z,99211.77
2022-11-14T06:37:45.376Z,99214.31
2022-11-14T06:43:31.382Z,99226.93
2022-11-14T06:49:12.296Z,99224.52
2022-11-14T06:55:55.230Z,99233.52
2022-11-14T07:02:38.178Z,99230.84
2022-11-14T07:09:23.134Z,99219.31
2022-11-14T07:15:09.414Z,99220.16
2022-11-14T07:20:50.249Z,99213.52
2022-11-14T07:26:31.548Z,99217.67
2022-11-14T07:33:13.849Z,99213.79
2022-11-14T07:39:56.529Z,99217.95
2022-11-14T07:45:37.264Z,99210.02
2022-11-14T07:51:20.357Z,99200.09
2022-11-14T07:57:01.403Z,99186.23
2022-11-14T08:02:43.021Z,99184.57
2022-11-14T08:08:23.724Z,99183.46
2022-11-14T08:15:04.914Z,99179.09
2022-11-14T08:20:47.303Z,99174.00
2022-11-14T08:26:36.472Z,99176.05
2022-11-14T08:32:58.789Z,99177.64
2022-11-14T08:38:51.525Z,99168.38
2022-11-14T08:45:33.551Z,99166.77
2022-11-14T08:52:17.956Z,99150.55
2022-11-14T08:58:59.960Z,99143.21
2022-11-14T09:04:53.895Z,99140.13
2022-11-14T09:11:04.853Z,99160.17
2022-11-14T09:16:51.421Z,99156.16
2022-11-14T09:23:33.257Z,99150.95
2022-11-14T09:29:16.131Z,99147.83
2022-11-14T09:34:56.861Z,99134.77
2022-11-14T09:41:29.837Z,99132.55
2022-11-14T09:47:20.521Z,99121.10
2022-11-14T09:53:08.050Z,99117.86
2022-11-14T09:59:49.324Z,99116.65
2022-11-14T10:06:45.331Z,99106.86
2022-11-14T10:13:30.021Z,99097.94
2022-11-14T10:19:42.551Z,99086.83
2022-11-14T10:26:12.997Z,99082.90
2022-11-14T10:32:18.589Z,99076.75
2022-11-14T10:38:39.302Z,99066.98
2022-11-14T10:45:12.004Z,99057.51
2022-11-14T10:51:17.550Z,99046.52
2022-11-14T10:57:19.071Z,99034.36
2022-11-14T11:03:00.562Z,99020.44
2022-11-14T11:09:45.418Z,99004.90
2022-11-14T11:15:34.428Z,99005.01
2022-11-14T11:21:21.853Z,98998.58
2022-11-14T11:28:14.997Z,98995.27
2022-11-14T11:34:57.323Z,98983.50
2022-11-14T11:40:42.191Z,98987.23
2022-11-14T11:47:17.307Z,98989.04
2022-11-14T11:54:11.038Z,98984.04
2022-11-14T12:00:55.399Z,98970.44
2022-11-14T12:07:38.270Z,98969.84
2022-11-14T12:14:29.157Z,98964.02
2022-11-14T12:21:07.355Z,98950.85
2022-11-14T12:28:10.440Z,98945.30
2022-11-14T12:35:10.495Z,98941.05
2022-11-14T12:42:02.009Z,98934.58
2022-11-14T12:49:03.337Z,98923.48
2022-11-14T12:55:45.089Z,98924.07
2022-11-14T13:02:33.818Z,98921.02
2022-11-14T13:09:21.268Z,98925.10
2022-11-14T13:16:02.344Z,98913.64
2022-11-14T14:00:02.925Z,98870.17
2022-11-14T14:06:26.130Z,98865.02
2022-11-14T14:13:23.597Z,98866.48
2022-11-14T14:19:36.164Z,98856.56
2022-11-14T14:26:28.574Z,98857.02
2022-11-14T14:32:17.290Z,98852.78
2022-11-14T14:38:51.431Z,98851.53
2022-11-14T14:45:39.783Z,98838.42
2022-11-14T14:52:16.398Z,98829.33
2022-11-14T14:59:14.301Z,98833.20
2022-11-14T15:11:20.303Z,98830.34
2022-11-14T16:00:42.688Z,98819.06
2022-11-14T16:07:22.588Z,98821.09
2022-11-14T16:13:41.437Z,98820.35
2022-11-14T16:20:27.305Z,98812.38
2022-11-14T16:27:19.208Z,98813.67
2022-11-14T16:33:59.415Z,98814.61
2022-11-14T16:39:55.795Z,98810.97
2022-11-14T16:45:59.035Z,98811.54
2022-11-14T16:51:52.085Z,98809.34
2022-11-14T16:57:51.637Z,98815.58
2022-11-14T17:04:01.083Z,98807.14
2022-11-14T17:10:00.463Z,98802.69
2022-11-14T17:43:00.972Z,98785.89
2022-11-14T17:49:26.114Z,98780.28
2022-11-14T17:56:14.203Z,98787.33
2022-11-14T18:02:00.855Z,98776.24
2022-11-14T18:08:12.888Z,98770.41
2022-11-14T18:14:14.153Z,98773.20
2022-11-14T18:20:46.752Z,98769.48
2022-11-14T18:27:03.747Z,98768.66
2022-11-14T18:32:32.912Z,98762.50
2022-11-14T18:39:14.914Z,98758.70
2022-11-14T18:44:58.607Z,98753.17
2022-11-14T18:51:44.760Z,98746.77
2022-11-14T18:58:26.541Z,98735.33
2022-11-14T19:05:10.440Z,98732.20
2022-11-14T19:12:03.936Z,98733.48
2022-11-14T19:18:27.502Z,98733.71
2022-11-14T19:25:10.555Z,98729.70
2022-11-14T19:31:53.563Z,98729.59
2022-11-14T19:38:40.452Z,98719.59
2022-11-14T19:45:23.714Z,98720.13
2022-11-14T19:52:08.756Z,98704.88
2022-11-14T19:58:55.046Z,98707.73
2022-11-14T20:05:36.963Z,98705.33
2022-11-14T20:12:20.352Z,98705.88
2022-11-14T20:19:02.351Z,98689.56
2022-11-14T20:25:44.941Z,98690.30
2022-11-14T20:31:29.367Z,98690.45
2022-11-14T20:37:11.674Z,98687.02
2022-11-14T20:42:52.861Z,98685.01
2022-11-14T20:48:35.038Z,98685.05
2022-11-14T20:54:15.842Z,98681.89
2022-11-14T20:59:57.286Z,98685.67
2022-11-14T21:05:40.770Z,98673.98
2022-11-14T21:11:22.621Z,98666.86
2022-11-14T21:17:04.187Z,98663.14
2022-11-14T21:22:44.751Z,98662.29
2022-11-14T21:28:24.979Z,98663.80
2022-11-14T21:34:12.486Z,98654.19
2022-11-14T21:39:53.199Z,98647.01
2022-11-14T21:45:33.404Z,98654.19
2022-11-14T21:51:19.626Z,98651.64
2022-11-14T21:57:03.133Z,98650.11
2022-11-14T22:03:05.579Z,98656.66
2022-11-14T22:08:46.727Z,98650.47
2022-11-14T22:14:28.416Z,98653.78
2022-11-14T22:21:19.010Z,98656.90
2022-11-14T22:26:59.727Z,98657.86
2022-11-14T22:32:40.297Z,98659.16
2022-11-14T22:38:21.603Z,98658.33
2022-11-14T22:44:02.572Z,98656.14
2022-11-14T22:49:43.239Z,98662.66
2022-11-14T22:55:23.497Z,98659.04
2022-11-14T23:01:12.873Z,98658.23
2022-11-14T23:06:53.567Z,98651.13
2022-11-14T23:12:34.501Z,98648.30
2022-11-14T23:18:15.245Z,98637.83
2022-11-14T23:24:01.677Z,98636.66
2022-11-14T23:29:42.405Z,98627.54
2022-11-14T23:35:22.922Z,98626.89
2022-11-14T23:41:03.445Z,98623.52
2022-11-14T23:46:43.738Z,98617.68
2022-11-14T23:52:24.069Z,98613.44
2022-11-14T23:58:04.710Z,98616.10
